Southeast — WDG3942 — position and weather

sailwx.info

Track history (hours):
 
Tides and Currents Weather Stations Pressure Air Temp Water Temp Dewpoint Dewpoint Depression Visibility Wind Speed Wind Dir Waves Ship Positions

Southeast

Owner: F/V SOUTHEAST LLC, Ilwaco, WA. More information available from US FCC via Universal Licensing System and Coast Guard Vessel Documentation Center.

Last reported at 2018-Jun-21 02:31 UTC. Time now 2018-Aug-14 07:04 UTC.
Position N 54°30' W 131°17'.
Warning: this ship's position is 54 days out of date.

Length 20 m.

MMSI: 367531260.

Date/timePositionNaut miles runAvg speedWind from/ knotsBaromVisibWave heightAir tempDewpointWater temp
2018-Jun-21 02:31N 54°30' W 131°17'1 8.4
2018-Jun-21 02:27N 54°30' W 131°16'6 7.8
2018-Jun-21 01:39N 54°24' W 131°11'2 7.4
2018-Jun-21 01:23N 54°23' W 131°09'3 7.5
2018-Jun-21 01:00N 54°20' W 131°06'4 7.2
2018-Jun-21 00:30N 54°17' W 131°03'4 7.3
2018-Jun-21 00:00N 54°14' W 131°02'4 7.9
2018-Jun-20 23:30N 54°10' W 130°60'4 7.7
2018-Jun-20 23:00N 54°06' W 130°58'4 7.8
2018-Jun-20 22:30N 54°03' W 130°56'4 7.9
2018-Jun-20 22:00N 53°59' W 130°55'4 7.9
2018-Jun-20 21:30N 53°55' W 130°51'4 8.5
2018-Jun-20 21:00N 53°52' W 130°47'4 8.7
2018-Jun-20 20:30N 53°49' W 130°42'7 8.4
2018-Jun-20 19:43N 53°44' W 130°35'2 8.3
2018-Jun-20 19:30N 53°42' W 130°33'17 8.2
2018-Jun-20 17:24N 53°32' W 130°09'62 8.3
2018-Jun-20 10:00N 52°44' W 129°05'5 9.3
2018-Jun-20 09:29N 52°41' W 128°59'4 8.8
2018-Jun-20 08:58N 52°37' W 128°54'5 8.5
2018-Jun-20 08:23N 52°32' W 128°53'5 8.9
2018-Jun-20 07:49N 52°28' W 128°51'5 9.0
2018-Jun-20 07:18N 52°23' W 128°50'3 8.5
2018-Jun-20 06:58N 52°20' W 128°50'4 7.7
2018-Jun-20 06:30N 52°17' W 128°49'4 7.5
2018-Jun-20 06:00N 52°13' W 128°48'4 7.7
2018-Jun-20 05:30N 52°09' W 128°47'4 7.3
2018-Jun-20 05:00N 52°05' W 128°46'4 7.4
2018-Jun-20 04:30N 52°02' W 128°45'4 7.6
2018-Jun-20 04:00N 51°58' W 128°44'4 7.3
2018-Jun-20 03:30N 51°54' W 128°43'4 7.3
2018-Jun-20 03:00N 51°51' W 128°42'4 7.7
2018-Jun-20 02:30N 51°47' W 128°41'4 8.0
2018-Jun-20 02:00N 51°43' W 128°41'4 7.6
2018-Jun-20 01:30N 51°39' W 128°41'4 7.7
2018-Jun-20 01:00N 51°35' W 128°40'4 7.7
2018-Jun-20 00:30N 51°32' W 128°40'4 7.9
2018-Jun-20 00:00N 51°28' W 128°39'4 7.9
2018-Jun-19 23:30N 51°24' W 128°38'4 8.0
2018-Jun-19 23:00N 51°20' W 128°38'4 8.2
2018-Jun-19 22:30N 51°16' W 128°37'4 8.2
2018-Jun-19 22:00N 51°12' W 128°36'4 8.3
2018-Jun-19 21:29N 51°07' W 128°35'5 8.5
2018-Jun-19 20:56N 51°03' W 128°33'5 8.7
2018-Jun-19 20:24N 50°58' W 128°32'4 8.5
2018-Jun-19 19:55N 50°54' W 128°31'102 7.7
2018-Jun-19 06:38N 49°25' W 127°12'2 8.2
2018-Jun-19 06:26N 49°24' W 127°11'5 8.1
2018-Jun-19 05:48N 49°20' W 127°05'4 7.9
2018-Jun-19 05:17N 49°17' W 127°01'2 7.8
2018-Jun-19 05:00N 49°16' W 126°58'4 7.9
2018-Jun-19 04:30N 49°13' W 126°54'4 7.7
2018-Jun-19 04:00N 49°10' W 126°50'4 7.8
2018-Jun-19 03:30N 49°08' W 126°46'4 7.7
2018-Jun-19 03:00N 49°05' W 126°41'4 7.9
2018-Jun-19 02:30N 49°02' W 126°37'4 7.8
2018-Jun-19 02:00N 48°60' W 126°32'4 7.7
2018-Jun-19 01:30N 48°57' W 126°28'4 7.6
2018-Jun-19 01:00N 48°55' W 126°24'4 7.6
2018-Jun-19 00:30N 48°53' W 126°19'4 7.7
2018-Jun-19 00:00N 48°51' W 126°14'4 7.9
2018-Jun-18 23:30N 48°48' W 126°09'4 8.1
2018-Jun-18 23:00N 48°46' W 126°04'4 8.3
2018-Jun-18 22:30N 48°43' W 125°60'4 8.4
2018-Jun-18 21:58N 48°40' W 125°55'4 8.4
2018-Jun-18 21:30N 48°37' W 125°51'4 8.2
2018-Jun-18 21:00N 48°33' W 125°48'4 8.1
2018-Jun-18 20:30N 48°29' W 125°46'4 8.0
2018-Jun-18 19:57N 48°25' W 125°44'4 8.0
2018-Jun-18 19:30N 48°22' W 125°41'4 7.9
2018-Jun-18 19:00N 48°18' W 125°38'5 7.5
2018-Jun-18 18:17N 48°14' W 125°34'4 7.1
2018-Jun-18 17:46N 48°11' W 125°31'3 7.0
2018-Jun-18 17:21N 48°08' W 125°29'2 7.0
2018-Jun-18 17:00N 48°06' W 125°27'4 7.1
2018-Jun-18 16:30N 48°03' W 125°25'4 7.4
2018-Jun-18 16:00N 47°60' W 125°22'4 7.8
2018-Jun-18 15:30N 47°56' W 125°19'4 7.9
2018-Jun-18 15:00N 47°53' W 125°16'4 8.0
2018-Jun-18 14:29N 47°49' W 125°13'4 7.9
2018-Jun-18 14:00N 47°46' W 125°10'4 7.4
2018-Jun-18 13:30N 47°42' W 125°08'4 7.7
2018-Jun-18 13:00N 47°39' W 125°06'4 7.5
2018-Jun-18 12:26N 47°35' W 125°04'3 7.4
2018-Jun-18 12:00N 47°32' W 125°02'4 7.5
2018-Jun-18 11:29N 47°29' W 124°59'4 7.5
2018-Jun-18 10:58N 47°25' W 124°57'3 7.3
2018-Jun-18 10:30N 47°22' W 124°54'4 7.3
2018-Jun-18 09:59N 47°19' W 124°52'5 7.5
2018-Jun-18 09:20N 47°14' W 124°48'2 7.2
2018-Jun-18 09:00N 47°12' W 124°47'4 7.4
2018-Jun-18 08:29N 47°09' W 124°44'3 7.1
2018-Jun-18 08:00N 47°06' W 124°42'4 7.0
2018-Jun-18 07:30N 47°03' W 124°39'4 7.1
2018-Jun-18 07:00N 46°59' W 124°37'4 7.3
2018-Jun-18 06:30N 46°56' W 124°35'4 7.4
2018-Jun-18 06:01N 46°53' W 124°32'4 7.3
2018-Jun-18 05:30N 46°50' W 124°30'4 7.3
2018-Jun-18 05:00N 46°47' W 124°27'4 7.5
2018-Jun-18 04:30N 46°43' W 124°25'4 7.4
2018-Jun-18 04:00N 46°40' W 124°22'4 7.2
2018-Jun-18 03:30N 46°37' W 124°20'4 7.3
2018-Jun-18 03:00N 46°33' W 124°18'7 7.4
2018-Jun-18 02:05N 46°27' W 124°15'1 7.5
2018-Jun-18 02:00N 46°26' W 124°14'4 7.7
2018-Jun-18 01:31N 46°23' W 124°13'4 7.4
2018-Jun-18 01:01N 46°20' W 124°10'4 7.1
2018-Jun-18 00:30N 46°17' W 124°07'3 6.1
2018-Jun-18 00:00N 46°15' W 124°03'3 5.5
2018-Jun-17 23:31N 46°14' W 123°59'4 5.7
2018-Jun-17 22:47N 46°11' W 123°55'1 4.6
2018-Jun-17 22:30N 46°10' W 123°55'0 0.0
2018-Jun-17 22:00N 46°10' W 123°55'0 0.0
2018-Jun-17 21:17N 46°10' W 123°55'0 0.0
2018-Jun-17 20:57N 46°10' W 123°55'0 0.0
2018-Jun-17 20:23N 46°10' W 123°55'0 0.0
2018-Jun-17 20:01N 46°10' W 123°55'0 0.0
2018-Jun-17 19:30N 46°10' W 123°55'0 0.0
2018-Jun-17 19:00N 46°10' W 123°55'0 0.0
2018-Jun-17 18:30N 46°10' W 123°55'0 0.0
2018-Jun-17 18:01N 46°10' W 123°55'0 0.0
2018-Jun-17 17:30N 46°10' W 123°55'0 0.0
2018-Jun-17 17:00N 46°10' W 123°55'0 0.0
2018-Jun-17 16:31N 46°10' W 123°55'0 0.0
2018-Jun-17 15:56N 46°10' W 123°55'0 0.0
2018-Jun-17 15:30N 46°10' W 123°55'0 0.0
2018-Jun-17 15:01N 46°10' W 123°55'0 0.0
2018-Jun-17 14:30N 46°10' W 123°55'0 0.0
2018-Jun-17 14:00N 46°10' W 123°55'0 0.0
2018-Jun-17 13:31N 46°10' W 123°55'0 0.0
2018-Jun-17 13:00N 46°10' W 123°55'0 0.0
2018-Jun-17 12:30N 46°10' W 123°55'0 0.0
2018-Jun-17 12:00N 46°10' W 123°55'0 0.0
2018-Jun-17 11:30N 46°10' W 123°55'0 0.0
2018-Jun-17 11:00N 46°10' W 123°55'0 0.0
2018-Jun-17 10:30N 46°10' W 123°55'0 0.0
2018-Jun-17 09:44N 46°10' W 123°55'0 0.0
2018-Jun-17 09:31N 46°10' W 123°55'0 0.0
2018-Jun-17 09:00N 46°10' W 123°55'0 0.0
2018-Jun-17 08:30N 46°10' W 123°55'0 0.0
2018-Jun-17 08:01N 46°10' W 123°55'0 0.0
2018-Jun-17 07:30N 46°10' W 123°55'0 0.0
2018-Jun-17 06:59N 46°10' W 123°55'0 0.0
2018-Jun-17 06:31N 46°10' W 123°55'0 0.0
2018-Jun-17 06:00N 46°10' W 123°55'0 0.0
2018-Jun-17 05:31N 46°10' W 123°55'0 0.0
2018-Jun-17 05:00N 46°10' W 123°55'0 0.0
2018-Jun-17 04:30N 46°10' W 123°55'0 0.0
2018-Jun-17 04:01N 46°10' W 123°55'0 0.0
2018-Jun-17 03:30N 46°10' W 123°55'0 0.0
2018-Jun-17 03:00N 46°10' W 123°55'0 0.0
2018-Jun-17 02:31N 46°10' W 123°55'0 0.0
2018-Jun-17 02:00N 46°10' W 123°55'0 0.0
2018-Jun-17 01:30N 46°10' W 123°55'0 0.0
2018-Jun-17 01:00N 46°10' W 123°55'0 0.0
2018-Jun-17 00:30N 46°10' W 123°55'0 0.0
2018-Jun-17 00:00N 46°10' W 123°55'0 0.0
2018-Jun-16 23:31N 46°10' W 123°55'0 0.0
2018-Jun-16 23:01N 46°10' W 123°55'0 0.0
2018-Jun-16 22:31N 46°10' W 123°55'0 0.0
2018-Jun-16 22:00N 46°10' W 123°55'0 0.0
2018-Jun-16 21:30N 46°10' W 123°55'0 0.0
2018-Jun-16 21:00N 46°10' W 123°55'0 0.0
2018-Jun-16 20:30N 46°10' W 123°55'0 0.0
2018-Jun-16 20:01N 46°10' W 123°55'0 0.0
2018-Jun-16 19:28N 46°10' W 123°55'0 0.0
2018-Jun-16 19:00N 46°10' W 123°55'0 0.0
2018-Jun-16 18:30N 46°10' W 123°55'0 0.0
2018-Jun-16 18:00N 46°10' W 123°55'0 0.0
2018-Jun-16 17:30N 46°10' W 123°55'0 0.0
2018-Jun-16 17:00N 46°10' W 123°55'0 0.0
2018-Jun-16 16:30N 46°10' W 123°55'0 0.0
2018-Jun-16 16:01N 46°10' W 123°55'0 0.0
2018-Jun-16 15:31N 46°10' W 123°55'0 0.0
2018-Jun-16 15:00N 46°10' W 123°55'0 0.0
2018-Jun-16 14:30N 46°10' W 123°55'0 0.0
2018-Jun-16 14:01N 46°10' W 123°55'0 0.0
2018-Jun-16 13:31N 46°10' W 123°55'0 0.0
2018-Jun-16 13:00N 46°10' W 123°55'0 0.0
2018-Jun-16 12:30N 46°10' W 123°55'0 0.0
2018-Jun-16 12:01N 46°10' W 123°55'0 0.0
2018-Jun-16 11:31N 46°10' W 123°55'0 0.0
2018-Jun-16 11:00N 46°10' W 123°55'0 0.0
2018-Jun-16 10:30N 46°10' W 123°55'0 0.0
2018-Jun-16 10:00N 46°10' W 123°55'0 0.0
2018-Jun-16 09:31N 46°10' W 123°55'0 0.0
2018-Jun-16 09:01N 46°10' W 123°55'0 0.0
2018-Jun-16 08:30N 46°10' W 123°55'0 0.0
2018-Jun-16 08:00N 46°10' W 123°55'0 0.0
2018-Jun-16 07:31N 46°10' W 123°55'0 0.0
2018-Jun-16 06:59N 46°10' W 123°55'0 0.0
2018-Jun-16 06:30N 46°10' W 123°55'0 0.0
2018-Jun-16 06:00N 46°10' W 123°55'0 0.0
2018-Jun-16 05:31N 46°10' W 123°55'0 0.0
2018-Jun-16 05:00N 46°10' W 123°55'0 0.0
2018-Jun-16 04:28N 46°10' W 123°55'0 0.0
2018-Jun-16 03:54N 46°10' W 123°55'0 0.0
2018-Jun-16 03:31N 46°10' W 123°55'0 0.0
2018-Jun-16 03:00N 46°10' W 123°55'0 0.0
2018-Jun-16 02:30N 46°10' W 123°55'0 0.0
2018-Jun-16 01:53N 46°10' W 123°55'0 0.0
2018-Jun-16 01:30N 46°10' W 123°55'0 0.0
2018-Jun-16 01:00N 46°10' W 123°55'0 0.0
2018-Jun-16 00:31N 46°10' W 123°55'0 0.0
2018-Jun-16 00:00N 46°10' W 123°55'0 0.0
2018-Jun-15 23:31N 46°10' W 123°55'0 0.0
2018-Jun-15 23:00N 46°10' W 123°55'0 0.0
2018-Jun-15 22:31N 46°10' W 123°55'0 0.0
2018-Jun-15 22:00N 46°10' W 123°55'0 0.0
2018-Jun-15 21:31N 46°10' W 123°55'0 0.0
2018-Jun-15 21:00N 46°10' W 123°55'0 0.0
2018-Jun-15 20:30N 46°10' W 123°55'0 0.0
2018-Jun-15 20:00N 46°10' W 123°55'0 0.0
2018-Jun-15 19:31N 46°10' W 123°55'0 0.0
2018-Jun-15 19:00N 46°10' W 123°55'0 0.0
2018-Jun-15 18:30N 46°10' W 123°55'0 0.0
2018-Jun-15 18:00N 46°10' W 123°55'0 0.0
2018-Jun-15 17:30N 46°10' W 123°55'0 0.0
2018-Jun-15 17:00N 46°10' W 123°55'0 0.0
2018-Jun-15 16:31N 46°10' W 123°55'0 0.0
2018-Jun-15 15:51N 46°10' W 123°55'0 0.0
2018-Jun-15 15:30N 46°10' W 123°55'0 0.0
2018-Jun-15 15:00N 46°10' W 123°55'0 0.0
2018-Jun-15 14:30N 46°10' W 123°55'0 0.0
2018-Jun-15 14:01N 46°10' W 123°55'0 0.0
2018-Jun-15 13:30N 46°10' W 123°55'0 0.0
2018-Jun-15 13:00N 46°10' W 123°55'0 0.0
2018-Jun-15 12:30N 46°10' W 123°55'0 0.0
2018-Jun-15 11:49N 46°10' W 123°55'0 0.0
2018-Jun-15 11:30N 46°10' W 123°55'0 0.0
2018-Jun-15 11:00N 46°10' W 123°55'0 0.0
2018-Jun-15 10:30N 46°10' W 123°55'0 0.0
2018-Jun-15 09:37N 46°10' W 123°55'0 0.0
2018-Jun-15 09:31N 46°10' W 123°55'0 0.0
2018-Jun-15 09:00N 46°10' W 123°55'0 0.0
2018-Jun-15 08:30N 46°10' W 123°55'0 0.0
2018-Jun-15 08:00N 46°10' W 123°55'0 0.0
2018-Jun-15 07:19N 46°10' W 123°55'0 0.0
2018-Jun-15 06:59N 46°10' W 123°55'0 0.0
2018-Jun-15 06:31N 46°10' W 123°55'0 0.0
2018-Jun-15 06:00N 46°10' W 123°55'0 0.0
2018-Jun-15 05:29N 46°10' W 123°55'0 0.0
2018-Jun-15 05:00N 46°10' W 123°55'0 0.0
2018-Jun-15 04:30N 46°10' W 123°55'0 0.0
2018-Jun-15 04:00N 46°10' W 123°55'0 0.0
2018-Jun-15 03:03N 46°10' W 123°55'0 0.1
2018-Jun-15 03:01N 46°10' W 123°55'0 0.0
2018-Jun-15 02:31N 46°10' W 123°55'0 0.0
2018-Jun-15 02:00N 46°10' W 123°55'0 0.0
2018-Jun-15 01:21N 46°10' W 123°55'0 0.0
2018-Jun-15 01:00N 46°10' W 123°55'0 0.0
2018-Jun-15 00:30N 46°10' W 123°55'0 0.0
2018-Jun-15 00:01N 46°10' W 123°55'0 0.0
2018-Jun-14 23:31N 46°10' W 123°55'0 0.0
2018-Jun-14 23:00N 46°10' W 123°55'0 0.0
2018-Jun-14 22:31N 46°10' W 123°55'0 0.0
2018-Jun-14 22:01N 46°10' W 123°55'0 0.0
2018-Jun-14 21:31N 46°10' W 123°55'0 0.0
2018-Jun-14 21:00N 46°10' W 123°55'0 0.0
2018-Jun-14 20:30N 46°10' W 123°55'0 0.0
2018-Jun-14 20:00N 46°10' W 123°55'0 0.0
2018-Jun-14 19:31N 46°10' W 123°55'0 0.0
2018-Jun-14 19:00N 46°10' W 123°55'0 0.0
2018-Jun-14 18:30N 46°10' W 123°55'0 0.0
2018-Jun-14 18:00N 46°10' W 123°55'0 0.0
2018-Jun-14 17:30N 46°10' W 123°55'0 0.0
2018-Jun-14 17:00N 46°10' W 123°55'0 0.0
2018-Jun-14 16:30N 46°10' W 123°55'0 0.0
2018-Jun-14 16:00N 46°10' W 123°55'0 0.0
2018-Jun-14 15:30N 46°10' W 123°55'0 0.0
2018-Jun-14 15:01N 46°10' W 123°55'0 0.0
2018-Jun-14 14:22N 46°10' W 123°55'0 0.0
2018-Jun-14 14:00N 46°10' W 123°55'0 0.0
2018-Jun-14 13:31N 46°10' W 123°55'0 0.0
2018-Jun-14 13:00N 46°10' W 123°55'0 0.0
2018-Jun-14 12:30N 46°10' W 123°55'0 0.0
2018-Jun-14 12:00N 46°10' W 123°55'0 0.0
2018-Jun-14 11:30N 46°10' W 123°55'0 0.0
2018-Jun-14 11:01N 46°10' W 123°55'0 0.0
2018-Jun-14 10:31N 46°10' W 123°55'0 0.0
2018-Jun-14 10:01N 46°10' W 123°55'0 0.0
2018-Jun-14 09:31N 46°10' W 123°55'0 0.0
2018-Jun-14 09:00N 46°10' W 123°55'0 0.0
2018-Jun-14 08:30N 46°10' W 123°55'0 0.0
2018-Jun-14 08:01N 46°10' W 123°55'0 0.0
2018-Jun-14 07:31N 46°10' W 123°55'0 0.0
2018-Jun-14 06:59N 46°10' W 123°55'0 0.0
2018-Jun-14 06:30N 46°10' W 123°55'0 0.0
2018-Jun-14 06:01N 46°10' W 123°55'0 0.0
2018-Jun-14 05:23N 46°10' W 123°55'0 0.0
2018-Jun-14 05:01N 46°10' W 123°55'0 0.0
2018-Jun-14 04:30N 46°10' W 123°55'0 0.0
2018-Jun-14 04:00N 46°10' W 123°55'0 0.0
2018-Jun-14 03:19N 46°10' W 123°55'0 0.0
2018-Jun-14 03:00N 46°10' W 123°55'0 0.0
2018-Jun-14 02:30N 46°10' W 123°55'0 0.0
2018-Jun-14 02:00N 46°10' W 123°55'0 0.0
2018-Jun-14 01:31N 46°10' W 123°55'0 0.0
2018-Jun-14 01:00N 46°10' W 123°55'0 0.0
2018-Jun-14 00:31N 46°10' W 123°55'0 0.0
2018-Jun-14 00:00N 46°10' W 123°55'0 0.0
2018-Jun-13 23:31N 46°10' W 123°55'0 0.0
2018-Jun-13 23:00N 46°10' W 123°55'0 0.0
2018-Jun-13 22:30N 46°10' W 123°55'0 0.0
2018-Jun-13 22:01N 46°10' W 123°55'0 0.0
2018-Jun-13 21:30N 46°10' W 123°55'0 0.0
2018-Jun-13 21:00N 46°10' W 123°55'0 0.0
2018-Jun-13 20:30N 46°10' W 123°55'0 0.0
2018-Jun-13 20:01N 46°10' W 123°55'0 0.2
2018-Jun-13 19:30N 46°10' W 123°55'0 0.2
2018-Jun-13 19:00N 46°10' W 123°55'0 0.0
2018-Jun-13 18:31N 46°10' W 123°55'0 0.0
2018-Jun-13 18:00N 46°10' W 123°55'0 0.0
2018-Jun-13 17:31N 46°10' W 123°55'0 0.0
2018-Jun-13 16:51N 46°10' W 123°55'0 0.0
2018-Jun-13 16:30N 46°10' W 123°55'0 0.0
2018-Jun-13 16:01N 46°10' W 123°55'0 0.0
2018-Jun-13 15:30N 46°10' W 123°55'0 0.0
2018-Jun-13 15:00N 46°10' W 123°55'0 0.0
2018-Jun-13 14:30N 46°10' W 123°55'0 0.0
2018-Jun-13 14:00N 46°10' W 123°55'0 0.0
2018-Jun-13 13:31N 46°10' W 123°55'0 0.0
2018-Jun-13 13:00N 46°10' W 123°55'0 0.0
2018-Jun-13 12:30N 46°10' W 123°55'0 0.0
2018-Jun-13 12:00N 46°10' W 123°55'0 0.0
2018-Jun-13 11:31N 46°10' W 123°55'0 0.0
2018-Jun-13 11:00N 46°10' W 123°55'0 0.0
2018-Jun-13 10:30N 46°10' W 123°55'0 0.0
2018-Jun-13 10:00N 46°10' W 123°55'0 0.0
2018-Jun-13 09:31N 46°10' W 123°55'0 0.0
2018-Jun-13 09:00N 46°10' W 123°55'0 0.0
2018-Jun-13 08:30N 46°10' W 123°55'0 0.0
2018-Jun-13 08:00N 46°10' W 123°55'0 0.0
2018-Jun-13 07:30N 46°10' W 123°55'0 0.0
2018-Jun-13 06:59N 46°10' W 123°55'0 0.0
2018-Jun-13 06:14N 46°10' W 123°55'0 0.0
2018-Jun-13 06:00N 46°10' W 123°55'0 0.0
2018-Jun-13 05:30N 46°10' W 123°55'0 0.0
2018-Jun-13 05:00N 46°10' W 123°55'0 0.0
2018-Jun-13 04:30N 46°10' W 123°55'0 0.0
2018-Jun-13 03:48N 46°10' W 123°55'0 0.0
2018-Jun-13 03:27N 46°10' W 123°55'0 0.0
2018-Jun-13 03:00N 46°10' W 123°55'0 0.0
2018-Jun-13 02:14N 46°10' W 123°55'0 0.0
2018-Jun-13 02:00N 46°10' W 123°55'0 0.0
2018-Jun-13 01:30N 46°10' W 123°55'0 0.0
2018-Jun-13 01:00N 46°10' W 123°55'0 0.0
2018-Jun-13 00:30N 46°10' W 123°55'0 0.0
2018-Jun-13 00:01N 46°10' W 123°55'0 0.2
2018-Jun-12 23:31N 46°10' W 123°55'0 0.0
2018-Jun-12 22:59N 46°10' W 123°55'0 0.0
2018-Jun-12 22:31N 46°10' W 123°55'0 0.0
2018-Jun-12 22:01N 46°10' W 123°55'0 0.0
2018-Jun-12 21:26N 46°10' W 123°55'0 0.0
2018-Jun-12 21:00N 46°10' W 123°55'0 0.0
2018-Jun-12 20:31N 46°10' W 123°55'0 0.0
2018-Jun-12 20:00N 46°10' W 123°55'0 0.0
2018-Jun-12 19:30N 46°10' W 123°55'0 0.2
2018-Jun-12 19:01N 46°10' W 123°55'0 0.0
2018-Jun-12 18:31N 46°10' W 123°55'0 0.0
2018-Jun-12 18:01N 46°10' W 123°55'0 0.0
2018-Jun-12 17:20N 46°10' W 123°55'0 0.0
2018-Jun-12 17:00N 46°10' W 123°55'0 0.0
2018-Jun-12 16:30N 46°10' W 123°55'0 0.0
2018-Jun-12 16:01N 46°10' W 123°55'0 0.0
2018-Jun-12 15:31N 46°10' W 123°55'0 0.0
2018-Jun-12 15:00N 46°10' W 123°55'0 0.0
2018-Jun-12 14:31N 46°10' W 123°55'0 0.0
2018-Jun-12 14:00N 46°10' W 123°55'0 0.0
2018-Jun-12 13:30N 46°10' W 123°55'0 0.0
2018-Jun-12 13:00N 46°10' W 123°55'0 0.0
2018-Jun-12 12:30N 46°10' W 123°55'0 0.0
2018-Jun-12 12:01N 46°10' W 123°55'0 0.0
2018-Jun-12 11:17N 46°10' W 123°55'0 0.0
2018-Jun-12 11:00N 46°10' W 123°55'0 0.0
2018-Jun-12 10:30N 46°10' W 123°55'0 0.0
2018-Jun-12 10:00N 46°10' W 123°55'0 0.0
2018-Jun-12 09:30N 46°10' W 123°55'0 0.0
2018-Jun-12 09:01N 46°10' W 123°55'0 0.0
2018-Jun-12 08:31N 46°10' W 123°55'0 0.0
2018-Jun-12 08:00N 46°10' W 123°55'0 0.0
2018-Jun-12 07:31N 46°10' W 123°55'0 0.0
2018-Jun-12 06:51N 46°10' W 123°55'0 0.0
2018-Jun-12 06:30N 46°10' W 123°55'0 0.0
2018-Jun-12 06:00N 46°10' W 123°55'0 0.0
2018-Jun-12 05:30N 46°10' W 123°55'0 0.0
2018-Jun-12 05:01N 46°10' W 123°55'0 0.0
2018-Jun-12 04:30N 46°10' W 123°55'0 0.0
2018-Jun-12 04:00N 46°10' W 123°55'0 0.0
2018-Jun-12 03:16N 46°10' W 123°55'0 0.0
2018-Jun-12 03:00N 46°10' W 123°55'0 0.0
2018-Jun-12 02:20N 46°10' W 123°55'0 0.0
2018-Jun-12 02:00N 46°10' W 123°55'0 0.0
2018-Jun-12 01:31N 46°10' W 123°55'0 0.0
2018-Jun-12 01:01N 46°10' W 123°55'0 0.0
2018-Jun-12 00:30N 46°10' W 123°55'0 0.0
2018-Jun-12 00:01N 46°10' W 123°55'0 0.2
2018-Jun-11 23:30N 46°10' W 123°55'0 0.0
2018-Jun-11 22:59N 46°10' W 123°55'0 0.4
2018-Jun-11 22:31N 46°10' W 123°55'3 5.3
2018-Jun-11 21:52N 46°12' W 123°50'0 0.0
2018-Jun-11 21:31N 46°12' W 123°50'0 0.0
2018-Jun-11 21:00N 46°12' W 123°50'2 2.9
2018-Jun-11 20:29N 46°12' W 123°48'2 3.7
2018-Jun-11 20:00N 46°12' W 123°46'0 0.1
2018-Jun-11 19:30N 46°12' W 123°46'0 0.0
2018-Jun-11 19:01N 46°12' W 123°46'0 0.0
2018-Jun-11 18:31N 46°12' W 123°46'0 0.1
2018-Jun-11 17:42N 46°12' W 123°46'0 0.2
2018-Jun-11 17:31N 46°12' W 123°46'0 0.0
2018-Jun-11 17:00N 46°12' W 123°46'1 2.2
2018-Jun-11 16:30N 46°13' W 123°47'6 7.7
2018-Jun-11 15:47N 46°11' W 123°55'1 2.5
2018-Jun-11 15:30N 46°10' W 123°55'0 0.0
2018-Jun-11 15:00N 46°10' W 123°55'0 0.0
2018-Jun-11 14:23N 46°10' W 123°55'0 0.0
2018-Jun-11 14:01N 46°10' W 123°55'0 0.0
2018-Jun-11 13:30N 46°10' W 123°55'0 0.0
2018-Jun-11 13:00N 46°10' W 123°55'0 0.0
2018-Jun-11 12:30N 46°10' W 123°55'0 0.0
2018-Jun-11 11:56N 46°10' W 123°55'0 0.0
2018-Jun-11 11:30N 46°10' W 123°55'0 0.0
2018-Jun-11 11:00N 46°10' W 123°55'0 0.0
2018-Jun-11 10:05N 46°10' W 123°55'0 0.1
2018-Jun-11 10:00N 46°10' W 123°55'0 0.0
2018-Jun-11 09:20N 46°10' W 123°55'0 0.0
2018-Jun-11 09:01N 46°10' W 123°55'0 0.0
2018-Jun-11 08:30N 46°10' W 123°55'0 0.0
2018-Jun-11 08:00N 46°10' W 123°55'0 0.0
2018-Jun-11 07:30N 46°10' W 123°55'0 0.0
2018-Jun-11 06:59N 46°10' W 123°55'0 0.0
2018-Jun-11 06:30N 46°10' W 123°55'0 0.0
2018-Jun-11 06:01N 46°10' W 123°55'0 0.0
2018-Jun-11 05:23N 46°10' W 123°55'0 0.0
2018-Jun-11 05:01N 46°10' W 123°55'0 0.0
2018-Jun-11 04:17N 46°10' W 123°55'0 0.0
2018-Jun-11 04:01N 46°10' W 123°55'0 0.0
2018-Jun-11 03:30N 46°10' W 123°55'0 0.0
2018-Jun-11 03:01N 46°10' W 123°55'  
Track history (hours):
 
Tides and Currents Weather Stations Pressure Air Temp Water Temp Dewpoint Dewpoint Depression Visibility Wind Speed Wind Dir Waves Ship Positions

Southeast

Owner: F/V SOUTHEAST LLC, Ilwaco, WA. More information available from US FCC via Universal Licensing System and Coast Guard Vessel Documentation Center.

Last reported at 2018-Jun-21 02:31 UTC. Time now 2018-Aug-14 07:04 UTC.
Position N 54°30' W 131°17'.
Warning: this ship's position is 54 days out of date.

Length 20 m.

MMSI: 367531260.

Date/timePositionNaut miles runAvg speedWind from/ knotsBaromVisibWave heightAir tempDewpointWater temp
2018-Jun-21 02:31N 54°30' W 131°17'1 8.4
2018-Jun-21 02:27N 54°30' W 131°16'6 7.8
2018-Jun-21 01:39N 54°24' W 131°11'2 7.4
2018-Jun-21 01:23N 54°23' W 131°09'3 7.5
2018-Jun-21 01:00N 54°20' W 131°06'4 7.2
2018-Jun-21 00:30N 54°17' W 131°03'4 7.3
2018-Jun-21 00:00N 54°14' W 131°02'4 7.9
2018-Jun-20 23:30N 54°10' W 130°60'4 7.7
2018-Jun-20 23:00N 54°06' W 130°58'4 7.8
2018-Jun-20 22:30N 54°03' W 130°56'4 7.9
2018-Jun-20 22:00N 53°59' W 130°55'4 7.9
2018-Jun-20 21:30N 53°55' W 130°51'4 8.5
2018-Jun-20 21:00N 53°52' W 130°47'4 8.7
2018-Jun-20 20:30N 53°49' W 130°42'7 8.4
2018-Jun-20 19:43N 53°44' W 130°35'2 8.3
2018-Jun-20 19:30N 53°42' W 130°33'17 8.2
2018-Jun-20 17:24N 53°32' W 130°09'62 8.3
2018-Jun-20 10:00N 52°44' W 129°05'5 9.3
2018-Jun-20 09:29N 52°41' W 128°59'4 8.8
2018-Jun-20 08:58N 52°37' W 128°54'5 8.5
2018-Jun-20 08:23N 52°32' W 128°53'5 8.9
2018-Jun-20 07:49N 52°28' W 128°51'5 9.0
2018-Jun-20 07:18N 52°23' W 128°50'3 8.5
2018-Jun-20 06:58N 52°20' W 128°50'4 7.7
2018-Jun-20 06:30N 52°17' W 128°49'4 7.5
2018-Jun-20 06:00N 52°13' W 128°48'4 7.7
2018-Jun-20 05:30N 52°09' W 128°47'4 7.3
2018-Jun-20 05:00N 52°05' W 128°46'4 7.4
2018-Jun-20 04:30N 52°02' W 128°45'4 7.6
2018-Jun-20 04:00N 51°58' W 128°44'4 7.3
2018-Jun-20 03:30N 51°54' W 128°43'4 7.3
2018-Jun-20 03:00N 51°51' W 128°42'4 7.7
2018-Jun-20 02:30N 51°47' W 128°41'4 8.0
2018-Jun-20 02:00N 51°43' W 128°41'4 7.6
2018-Jun-20 01:30N 51°39' W 128°41'4 7.7
2018-Jun-20 01:00N 51°35' W 128°40'4 7.7
2018-Jun-20 00:30N 51°32' W 128°40'4 7.9
2018-Jun-20 00:00N 51°28' W 128°39'4 7.9
2018-Jun-19 23:30N 51°24' W 128°38'4 8.0
2018-Jun-19 23:00N 51°20' W 128°38'4 8.2
2018-Jun-19 22:30N 51°16' W 128°37'4 8.2
2018-Jun-19 22:00N 51°12' W 128°36'4 8.3
2018-Jun-19 21:29N 51°07' W 128°35'5 8.5
2018-Jun-19 20:56N 51°03' W 128°33'5 8.7
2018-Jun-19 20:24N 50°58' W 128°32'4 8.5
2018-Jun-19 19:55N 50°54' W 128°31'102 7.7
2018-Jun-19 06:38N 49°25' W 127°12'2 8.2
2018-Jun-19 06:26N 49°24' W 127°11'5 8.1
2018-Jun-19 05:48N 49°20' W 127°05'4 7.9
2018-Jun-19 05:17N 49°17' W 127°01'2 7.8
2018-Jun-19 05:00N 49°16' W 126°58'4 7.9
2018-Jun-19 04:30N 49°13' W 126°54'4 7.7
2018-Jun-19 04:00N 49°10' W 126°50'4 7.8
2018-Jun-19 03:30N 49°08' W 126°46'4 7.7
2018-Jun-19 03:00N 49°05' W 126°41'4 7.9
2018-Jun-19 02:30N 49°02' W 126°37'4 7.8
2018-Jun-19 02:00N 48°60' W 126°32'4 7.7
2018-Jun-19 01:30N 48°57' W 126°28'4 7.6
2018-Jun-19 01:00N 48°55' W 126°24'4 7.6
2018-Jun-19 00:30N 48°53' W 126°19'4 7.7
2018-Jun-19 00:00N 48°51' W 126°14'4 7.9
2018-Jun-18 23:30N 48°48' W 126°09'4 8.1
2018-Jun-18 23:00N 48°46' W 126°04'4 8.3
2018-Jun-18 22:30N 48°43' W 125°60'4 8.4
2018-Jun-18 21:58N 48°40' W 125°55'4 8.4
2018-Jun-18 21:30N 48°37' W 125°51'4 8.2
2018-Jun-18 21:00N 48°33' W 125°48'4 8.1
2018-Jun-18 20:30N 48°29' W 125°46'4 8.0
2018-Jun-18 19:57N 48°25' W 125°44'4 8.0
2018-Jun-18 19:30N 48°22' W 125°41'4 7.9
2018-Jun-18 19:00N 48°18' W 125°38'5 7.5
2018-Jun-18 18:17N 48°14' W 125°34'4 7.1
2018-Jun-18 17:46N 48°11' W 125°31'3 7.0
2018-Jun-18 17:21N 48°08' W 125°29'2 7.0
2018-Jun-18 17:00N 48°06' W 125°27'4 7.1
2018-Jun-18 16:30N 48°03' W 125°25'4 7.4
2018-Jun-18 16:00N 47°60' W 125°22'4 7.8
2018-Jun-18 15:30N 47°56' W 125°19'4 7.9
2018-Jun-18 15:00N 47°53' W 125°16'4 8.0
2018-Jun-18 14:29N 47°49' W 125°13'4 7.9
2018-Jun-18 14:00N 47°46' W 125°10'4 7.4
2018-Jun-18 13:30N 47°42' W 125°08'4 7.7
2018-Jun-18 13:00N 47°39' W 125°06'4 7.5
2018-Jun-18 12:26N 47°35' W 125°04'3 7.4
2018-Jun-18 12:00N 47°32' W 125°02'4 7.5
2018-Jun-18 11:29N 47°29' W 124°59'4 7.5
2018-Jun-18 10:58N 47°25' W 124°57'3 7.3
2018-Jun-18 10:30N 47°22' W 124°54'4 7.3
2018-Jun-18 09:59N 47°19' W 124°52'5 7.5
2018-Jun-18 09:20N 47°14' W 124°48'2 7.2
2018-Jun-18 09:00N 47°12' W 124°47'4 7.4
2018-Jun-18 08:29N 47°09' W 124°44'3 7.1
2018-Jun-18 08:00N 47°06' W 124°42'4 7.0
2018-Jun-18 07:30N 47°03' W 124°39'4 7.1
2018-Jun-18 07:00N 46°59' W 124°37'4 7.3
2018-Jun-18 06:30N 46°56' W 124°35'4 7.4
2018-Jun-18 06:01N 46°53' W 124°32'4 7.3
2018-Jun-18 05:30N 46°50' W 124°30'4 7.3
2018-Jun-18 05:00N 46°47' W 124°27'4 7.5
2018-Jun-18 04:30N 46°43' W 124°25'4 7.4
2018-Jun-18 04:00N 46°40' W 124°22'4 7.2
2018-Jun-18 03:30N 46°37' W 124°20'4 7.3
2018-Jun-18 03:00N 46°33' W 124°18'7 7.4
2018-Jun-18 02:05N 46°27' W 124°15'1 7.5
2018-Jun-18 02:00N 46°26' W 124°14'4 7.7
2018-Jun-18 01:31N 46°23' W 124°13'4 7.4
2018-Jun-18 01:01N 46°20' W 124°10'4 7.1
2018-Jun-18 00:30N 46°17' W 124°07'3 6.1
2018-Jun-18 00:00N 46°15' W 124°03'3 5.5
2018-Jun-17 23:31N 46°14' W 123°59'4 5.7
2018-Jun-17 22:47N 46°11' W 123°55'1 4.6
2018-Jun-17 22:30N 46°10' W 123°55'0 0.0
2018-Jun-17 22:00N 46°10' W 123°55'0 0.0
2018-Jun-17 21:17N 46°10' W 123°55'0 0.0
2018-Jun-17 20:57N 46°10' W 123°55'0 0.0
2018-Jun-17 20:23N 46°10' W 123°55'0 0.0
2018-Jun-17 20:01N 46°10' W 123°55'0 0.0
2018-Jun-17 19:30N 46°10' W 123°55'0 0.0
2018-Jun-17 19:00N 46°10' W 123°55'0 0.0
2018-Jun-17 18:30N 46°10' W 123°55'0 0.0
2018-Jun-17 18:01N 46°10' W 123°55'0 0.0
2018-Jun-17 17:30N 46°10' W 123°55'0 0.0
2018-Jun-17 17:00N 46°10' W 123°55'0 0.0
2018-Jun-17 16:31N 46°10' W 123°55'0 0.0
2018-Jun-17 15:56N 46°10' W 123°55'0 0.0
2018-Jun-17 15:30N 46°10' W 123°55'0 0.0
2018-Jun-17 15:01N 46°10' W 123°55'0 0.0
2018-Jun-17 14:30N 46°10' W 123°55'0 0.0
2018-Jun-17 14:00N 46°10' W 123°55'0 0.0
2018-Jun-17 13:31N 46°10' W 123°55'0 0.0
2018-Jun-17 13:00N 46°10' W 123°55'0 0.0
2018-Jun-17 12:30N 46°10' W 123°55'0 0.0
2018-Jun-17 12:00N 46°10' W 123°55'0 0.0
2018-Jun-17 11:30N 46°10' W 123°55'0 0.0
2018-Jun-17 11:00N 46°10' W 123°55'0 0.0
2018-Jun-17 10:30N 46°10' W 123°55'0 0.0
2018-Jun-17 09:44N 46°10' W 123°55'0 0.0
2018-Jun-17 09:31N 46°10' W 123°55'0 0.0
2018-Jun-17 09:00N 46°10' W 123°55'0 0.0
2018-Jun-17 08:30N 46°10' W 123°55'0 0.0
2018-Jun-17 08:01N 46°10' W 123°55'0 0.0
2018-Jun-17 07:30N 46°10' W 123°55'0 0.0
2018-Jun-17 06:59N 46°10' W 123°55'0 0.0
2018-Jun-17 06:31N 46°10' W 123°55'0 0.0
2018-Jun-17 06:00N 46°10' W 123°55'0 0.0
2018-Jun-17 05:31N 46°10' W 123°55'0 0.0
2018-Jun-17 05:00N 46°10' W 123°55'0 0.0
2018-Jun-17 04:30N 46°10' W 123°55'0 0.0
2018-Jun-17 04:01N 46°10' W 123°55'0 0.0
2018-Jun-17 03:30N 46°10' W 123°55'0 0.0
2018-Jun-17 03:00N 46°10' W 123°55'0 0.0
2018-Jun-17 02:31N 46°10' W 123°55'0 0.0
2018-Jun-17 02:00N 46°10' W 123°55'0 0.0
2018-Jun-17 01:30N 46°10' W 123°55'0 0.0
2018-Jun-17 01:00N 46°10' W 123°55'0 0.0
2018-Jun-17 00:30N 46°10' W 123°55'0 0.0
2018-Jun-17 00:00N 46°10' W 123°55'0 0.0
2018-Jun-16 23:31N 46°10' W 123°55'0 0.0
2018-Jun-16 23:01N 46°10' W 123°55'0 0.0
2018-Jun-16 22:31N 46°10' W 123°55'0 0.0
2018-Jun-16 22:00N 46°10' W 123°55'0 0.0
2018-Jun-16 21:30N 46°10' W 123°55'0 0.0
2018-Jun-16 21:00N 46°10' W 123°55'0 0.0
2018-Jun-16 20:30N 46°10' W 123°55'0 0.0
2018-Jun-16 20:01N 46°10' W 123°55'0 0.0
2018-Jun-16 19:28N 46°10' W 123°55'0 0.0
2018-Jun-16 19:00N 46°10' W 123°55'0 0.0
2018-Jun-16 18:30N 46°10' W 123°55'0 0.0
2018-Jun-16 18:00N 46°10' W 123°55'0 0.0
2018-Jun-16 17:30N 46°10' W 123°55'0 0.0
2018-Jun-16 17:00N 46°10' W 123°55'0 0.0
2018-Jun-16 16:30N 46°10' W 123°55'0 0.0
2018-Jun-16 16:01N 46°10' W 123°55'0 0.0
2018-Jun-16 15:31N 46°10' W 123°55'0 0.0
2018-Jun-16 15:00N 46°10' W 123°55'0 0.0
2018-Jun-16 14:30N 46°10' W 123°55'0 0.0
2018-Jun-16 14:01N 46°10' W 123°55'0 0.0
2018-Jun-16 13:31N 46°10' W 123°55'0 0.0
2018-Jun-16 13:00N 46°10' W 123°55'0 0.0
2018-Jun-16 12:30N 46°10' W 123°55'0 0.0
2018-Jun-16 12:01N 46°10' W 123°55'0 0.0
2018-Jun-16 11:31N 46°10' W 123°55'0 0.0
2018-Jun-16 11:00N 46°10' W 123°55'0 0.0
2018-Jun-16 10:30N 46°10' W 123°55'0 0.0
2018-Jun-16 10:00N 46°10' W 123°55'0 0.0
2018-Jun-16 09:31N 46°10' W 123°55'0 0.0
2018-Jun-16 09:01N 46°10' W 123°55'0 0.0
2018-Jun-16 08:30N 46°10' W 123°55'0 0.0
2018-Jun-16 08:00N 46°10' W 123°55'0 0.0
2018-Jun-16 07:31N 46°10' W 123°55'0 0.0
2018-Jun-16 06:59N 46°10' W 123°55'0 0.0
2018-Jun-16 06:30N 46°10' W 123°55'0 0.0
2018-Jun-16 06:00N 46°10' W 123°55'0 0.0
2018-Jun-16 05:31N 46°10' W 123°55'0 0.0
2018-Jun-16 05:00N 46°10' W 123°55'0 0.0
2018-Jun-16 04:28N 46°10' W 123°55'0 0.0
2018-Jun-16 03:54N 46°10' W 123°55'0 0.0
2018-Jun-16 03:31N 46°10' W 123°55'0 0.0
2018-Jun-16 03:00N 46°10' W 123°55'0 0.0
2018-Jun-16 02:30N 46°10' W 123°55'0 0.0
2018-Jun-16 01:53N 46°10' W 123°55'0 0.0
2018-Jun-16 01:30N 46°10' W 123°55'0 0.0
2018-Jun-16 01:00N 46°10' W 123°55'0 0.0
2018-Jun-16 00:31N 46°10' W 123°55'0 0.0
2018-Jun-16 00:00N 46°10' W 123°55'0 0.0
2018-Jun-15 23:31N 46°10' W 123°55'0 0.0
2018-Jun-15 23:00N 46°10' W 123°55'0 0.0
2018-Jun-15 22:31N 46°10' W 123°55'0 0.0
2018-Jun-15 22:00N 46°10' W 123°55'0 0.0
2018-Jun-15 21:31N 46°10' W 123°55'0 0.0
2018-Jun-15 21:00N 46°10' W 123°55'0 0.0
2018-Jun-15 20:30N 46°10' W 123°55'0 0.0
2018-Jun-15 20:00N 46°10' W 123°55'0 0.0
2018-Jun-15 19:31N 46°10' W 123°55'0 0.0
2018-Jun-15 19:00N 46°10' W 123°55'0 0.0
2018-Jun-15 18:30N 46°10' W 123°55'0 0.0
2018-Jun-15 18:00N 46°10' W 123°55'0 0.0
2018-Jun-15 17:30N 46°10' W 123°55'0 0.0
2018-Jun-15 17:00N 46°10' W 123°55'0 0.0
2018-Jun-15 16:31N 46°10' W 123°55'0 0.0
2018-Jun-15 15:51N 46°10' W 123°55'0 0.0
2018-Jun-15 15:30N 46°10' W 123°55'0 0.0
2018-Jun-15 15:00N 46°10' W 123°55'0 0.0
2018-Jun-15 14:30N 46°10' W 123°55'0 0.0
2018-Jun-15 14:01N 46°10' W 123°55'0 0.0
2018-Jun-15 13:30N 46°10' W 123°55'0 0.0
2018-Jun-15 13:00N 46°10' W 123°55'0 0.0
2018-Jun-15 12:30N 46°10' W 123°55'0 0.0
2018-Jun-15 11:49N 46°10' W 123°55'0 0.0
2018-Jun-15 11:30N 46°10' W 123°55'0 0.0
2018-Jun-15 11:00N 46°10' W 123°55'0 0.0
2018-Jun-15 10:30N 46°10' W 123°55'0 0.0
2018-Jun-15 09:37N 46°10' W 123°55'0 0.0
2018-Jun-15 09:31N 46°10' W 123°55'0 0.0
2018-Jun-15 09:00N 46°10' W 123°55'0 0.0
2018-Jun-15 08:30N 46°10' W 123°55'0 0.0
2018-Jun-15 08:00N 46°10' W 123°55'0 0.0
2018-Jun-15 07:19N 46°10' W 123°55'0 0.0
2018-Jun-15 06:59N 46°10' W 123°55'0 0.0
2018-Jun-15 06:31N 46°10' W 123°55'0 0.0
2018-Jun-15 06:00N 46°10' W 123°55'0 0.0
2018-Jun-15 05:29N 46°10' W 123°55'0 0.0
2018-Jun-15 05:00N 46°10' W 123°55'0 0.0
2018-Jun-15 04:30N 46°10' W 123°55'0 0.0
2018-Jun-15 04:00N 46°10' W 123°55'0 0.0
2018-Jun-15 03:03N 46°10' W 123°55'0 0.1
2018-Jun-15 03:01N 46°10' W 123°55'0 0.0
2018-Jun-15 02:31N 46°10' W 123°55'0 0.0
2018-Jun-15 02:00N 46°10' W 123°55'0 0.0
2018-Jun-15 01:21N 46°10' W 123°55'0 0.0
2018-Jun-15 01:00N 46°10' W 123°55'0 0.0
2018-Jun-15 00:30N 46°10' W 123°55'0 0.0
2018-Jun-15 00:01N 46°10' W 123°55'0 0.0
2018-Jun-14 23:31N 46°10' W 123°55'0 0.0
2018-Jun-14 23:00N 46°10' W 123°55'0 0.0
2018-Jun-14 22:31N 46°10' W 123°55'0 0.0
2018-Jun-14 22:01N 46°10' W 123°55'0 0.0
2018-Jun-14 21:31N 46°10' W 123°55'0 0.0
2018-Jun-14 21:00N 46°10' W 123°55'0 0.0
2018-Jun-14 20:30N 46°10' W 123°55'0 0.0
2018-Jun-14 20:00N 46°10' W 123°55'0 0.0
2018-Jun-14 19:31N 46°10' W 123°55'0 0.0
2018-Jun-14 19:00N 46°10' W 123°55'0 0.0
2018-Jun-14 18:30N 46°10' W 123°55'0 0.0
2018-Jun-14 18:00N 46°10' W 123°55'0 0.0
2018-Jun-14 17:30N 46°10' W 123°55'0 0.0
2018-Jun-14 17:00N 46°10' W 123°55'0 0.0
2018-Jun-14 16:30N 46°10' W 123°55'0 0.0
2018-Jun-14 16:00N 46°10' W 123°55'0 0.0
2018-Jun-14 15:30N 46°10' W 123°55'0 0.0
2018-Jun-14 15:01N 46°10' W 123°55'0 0.0
2018-Jun-14 14:22N 46°10' W 123°55'0 0.0
2018-Jun-14 14:00N 46°10' W 123°55'0 0.0
2018-Jun-14 13:31N 46°10' W 123°55'0 0.0
2018-Jun-14 13:00N 46°10' W 123°55'0 0.0
2018-Jun-14 12:30N 46°10' W 123°55'0 0.0
2018-Jun-14 12:00N 46°10' W 123°55'0 0.0
2018-Jun-14 11:30N 46°10' W 123°55'0 0.0
2018-Jun-14 11:01N 46°10' W 123°55'0 0.0
2018-Jun-14 10:31N 46°10' W 123°55'0 0.0
2018-Jun-14 10:01N 46°10' W 123°55'0 0.0
2018-Jun-14 09:31N 46°10' W 123°55'0 0.0
2018-Jun-14 09:00N 46°10' W 123°55'0 0.0
2018-Jun-14 08:30N 46°10' W 123°55'0 0.0
2018-Jun-14 08:01N 46°10' W 123°55'0 0.0
2018-Jun-14 07:31N 46°10' W 123°55'0 0.0
2018-Jun-14 06:59N 46°10' W 123°55'0 0.0
2018-Jun-14 06:30N 46°10' W 123°55'0 0.0
2018-Jun-14 06:01N 46°10' W 123°55'0 0.0
2018-Jun-14 05:23N 46°10' W 123°55'0 0.0
2018-Jun-14 05:01N 46°10' W 123°55'0 0.0
2018-Jun-14 04:30N 46°10' W 123°55'0 0.0
2018-Jun-14 04:00N 46°10' W 123°55'0 0.0
2018-Jun-14 03:19N 46°10' W 123°55'0 0.0
2018-Jun-14 03:00N 46°10' W 123°55'0 0.0
2018-Jun-14 02:30N 46°10' W 123°55'0 0.0
2018-Jun-14 02:00N 46°10' W 123°55'0 0.0
2018-Jun-14 01:31N 46°10' W 123°55'0 0.0
2018-Jun-14 01:00N 46°10' W 123°55'0 0.0
2018-Jun-14 00:31N 46°10' W 123°55'0 0.0
2018-Jun-14 00:00N 46°10' W 123°55'0 0.0
2018-Jun-13 23:31N 46°10' W 123°55'0 0.0
2018-Jun-13 23:00N 46°10' W 123°55'0 0.0
2018-Jun-13 22:30N 46°10' W 123°55'0 0.0
2018-Jun-13 22:01N 46°10' W 123°55'0 0.0
2018-Jun-13 21:30N 46°10' W 123°55'0 0.0
2018-Jun-13 21:00N 46°10' W 123°55'0 0.0
2018-Jun-13 20:30N 46°10' W 123°55'0 0.0
2018-Jun-13 20:01N 46°10' W 123°55'0 0.2
2018-Jun-13 19:30N 46°10' W 123°55'0 0.2
2018-Jun-13 19:00N 46°10' W 123°55'0 0.0
2018-Jun-13 18:31N 46°10' W 123°55'0 0.0
2018-Jun-13 18:00N 46°10' W 123°55'0 0.0
2018-Jun-13 17:31N 46°10' W 123°55'0 0.0
2018-Jun-13 16:51N 46°10' W 123°55'0 0.0
2018-Jun-13 16:30N 46°10' W 123°55'0 0.0
2018-Jun-13 16:01N 46°10' W 123°55'0 0.0
2018-Jun-13 15:30N 46°10' W 123°55'0 0.0
2018-Jun-13 15:00N 46°10' W 123°55'0 0.0
2018-Jun-13 14:30N 46°10' W 123°55'0 0.0
2018-Jun-13 14:00N 46°10' W 123°55'0 0.0
2018-Jun-13 13:31N 46°10' W 123°55'0 0.0
2018-Jun-13 13:00N 46°10' W 123°55'0 0.0
2018-Jun-13 12:30N 46°10' W 123°55'0 0.0
2018-Jun-13 12:00N 46°10' W 123°55'0 0.0
2018-Jun-13 11:31N 46°10' W 123°55'0 0.0
2018-Jun-13 11:00N 46°10' W 123°55'0 0.0
2018-Jun-13 10:30N 46°10' W 123°55'0 0.0
2018-Jun-13 10:00N 46°10' W 123°55'0 0.0
2018-Jun-13 09:31N 46°10' W 123°55'0 0.0
2018-Jun-13 09:00N 46°10' W 123°55'0 0.0
2018-Jun-13 08:30N 46°10' W 123°55'0 0.0
2018-Jun-13 08:00N 46°10' W 123°55'0 0.0
2018-Jun-13 07:30N 46°10' W 123°55'0 0.0
2018-Jun-13 06:59N 46°10' W 123°55'0 0.0
2018-Jun-13 06:14N 46°10' W 123°55'0 0.0
2018-Jun-13 06:00N 46°10' W 123°55'0 0.0
2018-Jun-13 05:30N 46°10' W 123°55'0 0.0
2018-Jun-13 05:00N 46°10' W 123°55'0 0.0
2018-Jun-13 04:30N 46°10' W 123°55'0 0.0
2018-Jun-13 03:48N 46°10' W 123°55'0 0.0
2018-Jun-13 03:27N 46°10' W 123°55'0 0.0
2018-Jun-13 03:00N 46°10' W 123°55'0 0.0
2018-Jun-13 02:14N 46°10' W 123°55'0 0.0
2018-Jun-13 02:00N 46°10' W 123°55'0 0.0
2018-Jun-13 01:30N 46°10' W 123°55'0 0.0
2018-Jun-13 01:00N 46°10' W 123°55'0 0.0
2018-Jun-13 00:30N 46°10' W 123°55'0 0.0
2018-Jun-13 00:01N 46°10' W 123°55'0 0.2
2018-Jun-12 23:31N 46°10' W 123°55'0 0.0
2018-Jun-12 22:59N 46°10' W 123°55'0 0.0
2018-Jun-12 22:31N 46°10' W 123°55'0 0.0
2018-Jun-12 22:01N 46°10' W 123°55'0 0.0
2018-Jun-12 21:26N 46°10' W 123°55'0 0.0
2018-Jun-12 21:00N 46°10' W 123°55'0 0.0
2018-Jun-12 20:31N 46°10' W 123°55'0 0.0
2018-Jun-12 20:00N 46°10' W 123°55'0 0.0
2018-Jun-12 19:30N 46°10' W 123°55'0 0.2
2018-Jun-12 19:01N 46°10' W 123°55'0 0.0
2018-Jun-12 18:31N 46°10' W 123°55'0 0.0
2018-Jun-12 18:01N 46°10' W 123°55'0 0.0
2018-Jun-12 17:20N 46°10' W 123°55'0 0.0
2018-Jun-12 17:00N 46°10' W 123°55'0 0.0
2018-Jun-12 16:30N 46°10' W 123°55'0 0.0
2018-Jun-12 16:01N 46°10' W 123°55'0 0.0
2018-Jun-12 15:31N 46°10' W 123°55'0 0.0
2018-Jun-12 15:00N 46°10' W 123°55'0 0.0
2018-Jun-12 14:31N 46°10' W 123°55'0 0.0
2018-Jun-12 14:00N 46°10' W 123°55'0 0.0
2018-Jun-12 13:30N 46°10' W 123°55'0 0.0
2018-Jun-12 13:00N 46°10' W 123°55'0 0.0
2018-Jun-12 12:30N 46°10' W 123°55'0 0.0
2018-Jun-12 12:01N 46°10' W 123°55'0 0.0
2018-Jun-12 11:17N 46°10' W 123°55'0 0.0
2018-Jun-12 11:00N 46°10' W 123°55'0 0.0
2018-Jun-12 10:30N 46°10' W 123°55'0 0.0
2018-Jun-12 10:00N 46°10' W 123°55'0 0.0
2018-Jun-12 09:30N 46°10' W 123°55'0 0.0
2018-Jun-12 09:01N 46°10' W 123°55'0 0.0
2018-Jun-12 08:31N 46°10' W 123°55'0 0.0
2018-Jun-12 08:00N 46°10' W 123°55'0 0.0
2018-Jun-12 07:31N 46°10' W 123°55'0 0.0
2018-Jun-12 06:51N 46°10' W 123°55'0 0.0
2018-Jun-12 06:30N 46°10' W 123°55'0 0.0
2018-Jun-12 06:00N 46°10' W 123°55'0 0.0
2018-Jun-12 05:30N 46°10' W 123°55'0 0.0
2018-Jun-12 05:01N 46°10' W 123°55'0 0.0
2018-Jun-12 04:30N 46°10' W 123°55'0 0.0
2018-Jun-12 04:00N 46°10' W 123°55'0 0.0
2018-Jun-12 03:16N 46°10' W 123°55'0 0.0
2018-Jun-12 03:00N 46°10' W 123°55'0 0.0
2018-Jun-12 02:20N 46°10' W 123°55'0 0.0
2018-Jun-12 02:00N 46°10' W 123°55'0 0.0
2018-Jun-12 01:31N 46°10' W 123°55'0 0.0
2018-Jun-12 01:01N 46°10' W 123°55'0 0.0
2018-Jun-12 00:30N 46°10' W 123°55'0 0.0
2018-Jun-12 00:01N 46°10' W 123°55'0 0.2
2018-Jun-11 23:30N 46°10' W 123°55'0 0.0
2018-Jun-11 22:59N 46°10' W 123°55'0 0.4
2018-Jun-11 22:31N 46°10' W 123°55'3 5.3
2018-Jun-11 21:52N 46°12' W 123°50'0 0.0
2018-Jun-11 21:31N 46°12' W 123°50'0 0.0
2018-Jun-11 21:00N 46°12' W 123°50'2 2.9
2018-Jun-11 20:29N 46°12' W 123°48'2 3.7
2018-Jun-11 20:00N 46°12' W 123°46'0 0.1
2018-Jun-11 19:30N 46°12' W 123°46'0 0.0
2018-Jun-11 19:01N 46°12' W 123°46'0 0.0
2018-Jun-11 18:31N 46°12' W 123°46'0 0.1
2018-Jun-11 17:42N 46°12' W 123°46'0 0.2
2018-Jun-11 17:31N 46°12' W 123°46'0 0.0
2018-Jun-11 17:00N 46°12' W 123°46'1 2.2
2018-Jun-11 16:30N 46°13' W 123°47'6 7.7
2018-Jun-11 15:47N 46°11' W 123°55'1 2.5
2018-Jun-11 15:30N 46°10' W 123°55'0 0.0
2018-Jun-11 15:00N 46°10' W 123°55'0 0.0
2018-Jun-11 14:23N 46°10' W 123°55'0 0.0
2018-Jun-11 14:01N 46°10' W 123°55'0 0.0
2018-Jun-11 13:30N 46°10' W 123°55'0 0.0
2018-Jun-11 13:00N 46°10' W 123°55'0 0.0
2018-Jun-11 12:30N 46°10' W 123°55'0 0.0
2018-Jun-11 11:56N 46°10' W 123°55'0 0.0
2018-Jun-11 11:30N 46°10' W 123°55'0 0.0
2018-Jun-11 11:00N 46°10' W 123°55'0 0.0
2018-Jun-11 10:05N 46°10' W 123°55'0 0.1
2018-Jun-11 10:00N 46°10' W 123°55'0 0.0
2018-Jun-11 09:20N 46°10' W 123°55'0 0.0
2018-Jun-11 09:01N 46°10' W 123°55'0 0.0
2018-Jun-11 08:30N 46°10' W 123°55'0 0.0
2018-Jun-11 08:00N 46°10' W 123°55'0 0.0
2018-Jun-11 07:30N 46°10' W 123°55'0 0.0
2018-Jun-11 06:59N 46°10' W 123°55'0 0.0
2018-Jun-11 06:30N 46°10' W 123°55'0 0.0
2018-Jun-11 06:01N 46°10' W 123°55'0 0.0
2018-Jun-11 05:23N 46°10' W 123°55'0 0.0
2018-Jun-11 05:01N 46°10' W 123°55'0 0.0
2018-Jun-11 04:17N 46°10' W 123°55'0 0.0
2018-Jun-11 04:01N 46°10' W 123°55'0 0.0
2018-Jun-11 03:30N 46°10' W 123°55'0 0.0
2018-Jun-11 03:01N 46°10' W 123°55'  

Dump ship's entire track history